WST607 MYAM-MYNN
Flight info
| Callsign | WST607 |
|---|---|
| Flight time | N/A |
| Altitude | 14000 |
| Route | MRRSH BR70V ZQA |
| Aircraft | E145/M-SDFGIRW/S |
Departure
| Time | 2026-04-20 21:03 |
|---|---|
| Airport | Leonard M. Thompson International Airport (MYAM) |
Arrival
| Time | N/A |
|---|---|
| Airport | Lynden Pindling International Airport (MYNN) |
| Time | Latitude | Longitude | Altitude | Speed | Heading |
|---|---|---|---|---|---|
| 2026-04-20 20:52 | 26.51280 | -77.07783 | 15 ft | 0 kts | 12° |
| 2026-04-20 20:58 | 26.51282 | -77.07783 | 15 ft | 1 kts | 7° |
| 2026-04-20 20:58 | 26.51284 | -77.07791 | 15 ft | 1 kts | 244° |
| 2026-04-20 20:58 | 26.51260 | -77.07790 | 15 ft | 4 kts | 173° |
| 2026-04-20 20:58 | 26.51226 | -77.07805 | 16 ft | 5 kts | 220° |
| 2026-04-20 20:59 | 26.51199 | -77.07847 | 16 ft | 7 kts | 238° |
| 2026-04-20 20:59 | 26.51169 | -77.07900 | 17 ft | 8 kts | 238° |
| 2026-04-20 20:59 | 26.51136 | -77.07959 | 17 ft | 9 kts | 238° |
| 2026-04-20 20:59 | 26.51096 | -77.08028 | 18 ft | 11 kts | 238° |
| 2026-04-20 21:00 | 26.51057 | -77.08110 | 18 ft | 12 kts | 248° |
| 2026-04-20 21:00 | 26.51025 | -77.08209 | 18 ft | 14 kts | 258° |
| 2026-04-20 21:00 | 26.51019 | -77.08346 | 17 ft | 23 kts | 269° |
| 2026-04-20 21:00 | 26.51013 | -77.08597 | 16 ft | 37 kts | 269° |
| 2026-04-20 21:01 | 26.51006 | -77.08873 | 12 ft | 34 kts | 268° |
| 2026-04-20 21:01 | 26.50998 | -77.09148 | 9 ft | 36 kts | 269° |
| 2026-04-20 21:01 | 26.50988 | -77.09373 | 9 ft | 15 kts | 264° |
| 2026-04-20 21:01 | 26.50987 | -77.09422 | 9 ft | 2 kts | 42° |
| 2026-04-20 21:02 | 26.50989 | -77.09405 | 9 ft | 0 kts | 85° |
| 2026-04-20 21:02 | 26.50990 | -77.09391 | 9 ft | 7 kts | 85° |
| 2026-04-20 21:02 | 26.50999 | -77.09112 | 9 ft | 70 kts | 88° |
| 2026-04-20 21:02 | 26.51019 | -77.08324 | 18 ft | 128 kts | 88° |
| 2026-04-20 21:03 | 26.51028 | -77.07204 | 221 ft | 150 kts | 85° |
| 2026-04-20 21:03 | 26.51037 | -77.06062 | 816 ft | 153 kts | 88° |
| 2026-04-20 21:03 | 26.50664 | -77.04836 | 1111 ft | 184 kts | 127° |
| 2026-04-20 21:03 | 26.49476 | -77.04094 | 1466 ft | 215 kts | 170° |
| 2026-04-20 21:04 | 26.47924 | -77.04325 | 1931 ft | 236 kts | 196° |
| 2026-04-20 21:04 | 26.46286 | -77.04740 | 2499 ft | 248 kts | 193° |
| 2026-04-20 21:04 | 26.44554 | -77.05197 | 3156 ft | 257 kts | 194° |
| 2026-04-20 21:04 | 26.42793 | -77.05685 | 3854 ft | 263 kts | 195° |
| 2026-04-20 21:05 | 26.41003 | -77.06186 | 4559 ft | 268 kts | 195° |
| 2026-04-20 21:05 | 26.39194 | -77.06695 | 5291 ft | 271 kts | 196° |
| 2026-04-20 21:05 | 26.37340 | -77.07215 | 6046 ft | 273 kts | 196° |
| 2026-04-20 21:05 | 26.35499 | -77.07732 | 6754 ft | 276 kts | 196° |
| 2026-04-20 21:06 | 26.33629 | -77.08257 | 7478 ft | 277 kts | 196° |
| 2026-04-20 21:06 | 26.31747 | -77.08786 | 8197 ft | 279 kts | 197° |
| 2026-04-20 21:06 | 26.29851 | -77.09318 | 8895 ft | 280 kts | 197° |
| 2026-04-20 21:06 | 26.27951 | -77.09851 | 9573 ft | 282 kts | 197° |
| 2026-04-20 21:07 | 26.26021 | -77.10393 | 10216 ft | 285 kts | 197° |
| 2026-04-20 21:07 | 26.24079 | -77.10938 | 10743 ft | 292 kts | 197° |
| 2026-04-20 21:07 | 26.22053 | -77.11505 | 11151 ft | 302 kts | 197° |
| 2026-04-20 21:07 | 26.19976 | -77.12087 | 11597 ft | 311 kts | 197° |
| 2026-04-20 21:08 | 26.17849 | -77.12683 | 12010 ft | 319 kts | 197° |
| 2026-04-20 21:08 | 26.15658 | -77.13296 | 12464 ft | 326 kts | 197° |
| 2026-04-20 21:08 | 26.13455 | -77.13912 | 13031 ft | 327 kts | 198° |
| 2026-04-20 21:08 | 26.11242 | -77.14531 | 13607 ft | 328 kts | 198° |
| 2026-04-20 21:09 | 26.08998 | -77.15160 | 13950 ft | 337 kts | 198° |
| 2026-04-20 21:09 | 26.07451 | -77.15592 | 13976 ft | 349 kts | 198° |